sensor_id;sensor_type;location;lat;lon;timestamp;pressure;altitude;pressure_sealevel;temperature;humidity
57572;BME280;44459;43.522;24.470;2022-07-22T00:00:07;99958.91;;;22.35;55.59
57572;BME280;44459;43.522;24.470;2022-07-22T00:02:33;99953.81;;;22.29;54.77
57572;BME280;44459;43.522;24.470;2022-07-22T00:04:59;99955.78;;;22.26;54.96
57572;BME280;44459;43.522;24.470;2022-07-22T00:07:24;99953.97;;;22.26;55.42
57572;BME280;44459;43.522;24.470;2022-07-22T00:09:49;99955.91;;;22.23;55.71
57572;BME280;44459;43.522;24.470;2022-07-22T00:12:15;99964.28;;;22.17;55.71
57572;BME280;44459;43.522;24.470;2022-07-22T00:14:40;99960.16;;;22.08;55.76
57572;BME280;44459;43.522;24.470;2022-07-22T00:17:06;99973.56;;;22.10;55.01
57572;BME280;44459;43.522;24.470;2022-07-22T00:19:31;99962.72;;;22.11;56.53
57572;BME280;44459;43.522;24.470;2022-07-22T00:21:56;99966.28;;;22.12;57.10
57572;BME280;44459;43.522;24.470;2022-07-22T00:24:22;99967.25;;;22.11;57.25
57572;BME280;44459;43.522;24.470;2022-07-22T00:26:47;99964.66;;;22.07;57.43
57572;BME280;44459;43.522;24.470;2022-07-22T00:29:12;99972.22;;;21.99;56.27
57572;BME280;44459;43.522;24.470;2022-07-22T00:31:38;99978.69;;;21.95;56.49
57572;BME280;44459;43.522;24.470;2022-07-22T00:34:03;99991.44;;;21.90;57.20
57572;BME280;44459;43.522;24.470;2022-07-22T00:36:29;99984.63;;;21.82;56.78
57572;BME280;44459;43.522;24.470;2022-07-22T00:38:54;99985.78;;;21.76;57.05
57572;BME280;44459;43.522;24.470;2022-07-22T00:41:19;99988.72;;;21.70;57.77
57572;BME280;44459;43.522;24.470;2022-07-22T00:43:48;99984.41;;;21.66;57.42
57572;BME280;44459;43.522;24.470;2022-07-22T00:46:13;99985.69;;;21.57;57.57
57572;BME280;44459;43.522;24.470;2022-07-22T00:48:39;99992.19;;;21.52;58.21
57572;BME280;44459;43.522;24.470;2022-07-22T00:51:04;99989.72;;;21.47;58.08
57572;BME280;44459;43.522;24.470;2022-07-22T00:53:29;99992.56;;;21.43;58.22
57572;BME280;44459;43.522;24.470;2022-07-22T00:55:55;99993.59;;;21.40;58.39
57572;BME280;44459;43.522;24.470;2022-07-22T00:58:20;99997.19;;;21.39;59.68
57572;BME280;44459;43.522;24.470;2022-07-22T01:00:46;99996.47;;;21.36;59.22
57572;BME280;44459;43.522;24.470;2022-07-22T01:03:12;100002.84;;;21.33;59.26
57572;BME280;44459;43.522;24.470;2022-07-22T01:05:38;100003.91;;;21.29;59.17
57572;BME280;44459;43.522;24.470;2022-07-22T01:08:07;100001.22;;;21.29;59.51
57572;BME280;44459;43.522;24.470;2022-07-22T01:10:32;100009.31;;;21.28;59.71
57572;BME280;44459;43.522;24.470;2022-07-22T01:12:57;100014.81;;;21.25;59.79
57572;BME280;44459;43.522;24.470;2022-07-22T01:15:23;100023.00;;;21.22;59.91
57572;BME280;44459;43.522;24.470;2022-07-22T01:17:48;100023.22;;;21.17;59.52
57572;BME280;44459;43.522;24.470;2022-07-22T01:20:13;100026.16;;;21.09;59.33
57572;BME280;44459;43.522;24.470;2022-07-22T01:22:38;100027.25;;;21.04;59.95
57572;BME280;44459;43.522;24.470;2022-07-22T01:25:04;100028.22;;;21.03;60.53
57572;BME280;44459;43.522;24.470;2022-07-22T01:27:30;100032.94;;;20.96;60.14
57572;BME280;44459;43.522;24.470;2022-07-22T01:29:55;100027.13;;;20.85;59.74
57572;BME280;44459;43.522;24.470;2022-07-22T01:32:20;100033.44;;;20.84;59.70
57572;BME280;44459;43.522;24.470;2022-07-22T01:34:46;100031.78;;;20.80;60.80
57572;BME280;44459;43.522;24.470;2022-07-22T01:37:11;100038.09;;;20.79;60.54
57572;BME280;44459;43.522;24.470;2022-07-22T01:39:36;100030.22;;;20.75;60.66
57572;BME280;44459;43.522;24.470;2022-07-22T01:42:02;100031.69;;;20.60;60.40
57572;BME280;44459;43.522;24.470;2022-07-22T01:44:27;100037.94;;;20.61;60.42
57572;BME280;44459;43.522;24.470;2022-07-22T01:46:54;100035.16;;;20.62;60.45
57572;BME280;44459;43.522;24.470;2022-07-22T01:49:20;100024.34;;;20.65;61.39
57572;BME280;44459;43.522;24.470;2022-07-22T01:51:46;100023.47;;;20.65;61.46
57572;BME280;44459;43.522;24.470;2022-07-22T01:54:11;100002.06;;;20.63;61.61
57572;BME280;44459;43.522;24.470;2022-07-22T01:56:37;100005.78;;;20.59;62.17
57572;BME280;44459;43.522;24.470;2022-07-22T01:59:02;100009.44;;;20.58;63.09
57572;BME280;44459;43.522;24.470;2022-07-22T02:01:27;100013.34;;;20.48;62.03
57572;BME280;44459;43.522;24.470;2022-07-22T02:03:53;100008.94;;;20.47;62.33
57572;BME280;44459;43.522;24.470;2022-07-22T02:06:18;100008.94;;;20.47;62.10
57572;BME280;44459;43.522;24.470;2022-07-22T02:08:44;100015.97;;;20.51;62.76
57572;BME280;44459;43.522;24.470;2022-07-22T02:11:09;100012.31;;;20.52;62.87
57572;BME280;44459;43.522;24.470;2022-07-22T02:13:34;100015.00;;;20.52;63.08
57572;BME280;44459;43.522;24.470;2022-07-22T02:16:00;100019.44;;;20.53;62.90
57572;BME280;44459;43.522;24.470;2022-07-22T02:18:25;100017.75;;;20.50;62.94
57572;BME280;44459;43.522;24.470;2022-07-22T02:20:50;100012.44;;;20.49;62.49
57572;BME280;44459;43.522;24.470;2022-07-22T02:23:16;100014.31;;;20.47;62.44
57572;BME280;44459;43.522;24.470;2022-07-22T02:25:41;100014.34;;;20.45;62.51
57572;BME280;44459;43.522;24.470;2022-07-22T02:28:07;100013.59;;;20.42;62.89
57572;BME280;44459;43.522;24.470;2022-07-22T02:30:33;100019.09;;;20.39;63.23
57572;BME280;44459;43.522;24.470;2022-07-22T02:32:58;100021.88;;;20.36;62.77
57572;BME280;44459;43.522;24.470;2022-07-22T02:35:24;100027.38;;;20.33;63.20
57572;BME280;44459;43.522;24.470;2022-07-22T02:37:50;100038.97;;;20.33;62.15
57572;BME280;44459;43.522;24.470;2022-07-22T02:40:16;100036.44;;;20.29;61.75
57572;BME280;44459;43.522;24.470;2022-07-22T02:42:41;100039.00;;;20.32;63.98
57572;BME280;44459;43.522;24.470;2022-07-22T02:45:07;100039.94;;;20.31;63.54
57572;BME280;44459;43.522;24.470;2022-07-22T02:47:33;100048.13;;;20.26;62.86
57572;BME280;44459;43.522;24.470;2022-07-22T02:49:58;100055.34;;;20.24;63.39
57572;BME280;44459;43.522;24.470;2022-07-22T02:52:23;100056.44;;;20.19;62.91
57572;BME280;44459;43.522;24.470;2022-07-22T02:54:48;100053.91;;;20.14;62.19
57572;BME280;44459;43.522;24.470;2022-07-22T02:57:14;100066.03;;;19.99;61.67
57572;BME280;44459;43.522;24.470;2022-07-22T02:59:39;100060.25;;;19.87;62.02
57572;BME280;44459;43.522;24.470;2022-07-22T03:02:05;100052.66;;;19.75;62.45
57572;BME280;44459;43.522;24.470;2022-07-22T03:04:30;100060.06;;;19.67;62.48
57572;BME280;44459;43.522;24.470;2022-07-22T03:06:55;100066.69;;;19.55;63.07
57572;BME280;44459;43.522;24.470;2022-07-22T03:09:21;100069.56;;;19.49;63.40
57572;BME280;44459;43.522;24.470;2022-07-22T03:11:46;100070.13;;;19.58;63.28
57572;BME280;44459;43.522;24.470;2022-07-22T03:14:12;100077.88;;;19.68;63.25
57572;BME280;44459;43.522;24.470;2022-07-22T03:16:37;100089.44;;;19.68;62.79
57572;BME280;44459;43.522;24.470;2022-07-22T03:19:03;100089.06;;;19.80;62.89
57572;BME280;44459;43.522;24.470;2022-07-22T03:21:28;100082.66;;;19.84;62.60
57572;BME280;44459;43.522;24.470;2022-07-22T03:23:53;100091.25;;;19.94;63.55
57572;BME280;44459;43.522;24.470;2022-07-22T03:26:19;100086.63;;;19.99;64.52
57572;BME280;44459;43.522;24.470;2022-07-22T03:28:45;100087.41;;;20.02;64.30
57572;BME280;44459;43.522;24.470;2022-07-22T03:31:11;100085.53;;;20.04;64.55
57572;BME280;44459;43.522;24.470;2022-07-22T03:33:36;100085.44;;;20.07;64.31
57572;BME280;44459;43.522;24.470;2022-07-22T03:36:01;100095.22;;;20.08;64.07
57572;BME280;44459;43.522;24.470;2022-07-22T03:38:26;100100.47;;;20.12;64.20
57572;BME280;44459;43.522;24.470;2022-07-22T03:40:52;100103.03;;;20.15;64.89
57572;BME280;44459;43.522;24.470;2022-07-22T03:43:17;100098.50;;;20.17;64.86
57572;BME280;44459;43.522;24.470;2022-07-22T03:45:43;100102.13;;;20.16;65.42
57572;BME280;44459;43.522;24.470;2022-07-22T03:48:10;100109.06;;;20.21;65.82
57572;BME280;44459;43.522;24.470;2022-07-22T03:50:35;100113.34;;;20.27;65.73
57572;BME280;44459;43.522;24.470;2022-07-22T03:53:00;100118.44;;;20.34;64.03
57572;BME280;44459;43.522;24.470;2022-07-22T03:55:26;100124.50;;;20.41;63.04
57572;BME280;44459;43.522;24.470;2022-07-22T03:57:51;100126.19;;;20.43;62.70
57572;BME280;44459;43.522;24.470;2022-07-22T04:00:16;100119.59;;;20.52;64.16
57572;BME280;44459;43.522;24.470;2022-07-22T04:02:42;100125.44;;;20.63;64.92
57572;BME280;44459;43.522;24.470;2022-07-22T04:05:07;100127.84;;;20.71;63.32
57572;BME280;44459;43.522;24.470;2022-07-22T04:07:33;100129.22;;;20.82;61.87
57572;BME280;44459;43.522;24.470;2022-07-22T04:09:58;100128.75;;;20.94;61.63
57572;BME280;44459;43.522;24.470;2022-07-22T04:12:31;100132.03;;;21.02;61.68
57572;BME280;44459;43.522;24.470;2022-07-22T04:14:57;100146.00;;;21.12;61.50
57572;BME280;44459;43.522;24.470;2022-07-22T04:17:22;100138.03;;;21.32;62.12
57572;BME280;44459;43.522;24.470;2022-07-22T04:19:47;100147.25;;;21.48;62.15
57572;BME280;44459;43.522;24.470;2022-07-22T04:22:13;100140.59;;;21.58;61.44
57572;BME280;44459;43.522;24.470;2022-07-22T04:24:38;100147.38;;;21.67;61.25
57572;BME280;44459;43.522;24.470;2022-07-22T04:27:03;100144.88;;;21.84;61.34
57572;BME280;44459;43.522;24.470;2022-07-22T04:29:29;100157.91;;;21.95;60.80
57572;BME280;44459;43.522;24.470;2022-07-22T04:31:54;100156.41;;;22.10;60.70
57572;BME280;44459;43.522;24.470;2022-07-22T04:34:20;100161.00;;;22.28;60.31
57572;BME280;44459;43.522;24.470;2022-07-22T04:36:45;100159.66;;;22.38;60.66
57572;BME280;44459;43.522;24.470;2022-07-22T04:39:10;100162.41;;;22.36;60.60
57572;BME280;44459;43.522;24.470;2022-07-22T04:41:37;100160.53;;;22.58;60.40
57572;BME280;44459;43.522;24.470;2022-07-22T04:44:02;100158.13;;;22.73;59.87
57572;BME280;44459;43.522;24.470;2022-07-22T04:46:27;100163.84;;;22.85;60.15
57572;BME280;44459;43.522;24.470;2022-07-22T04:48:53;100158.56;;;23.02;59.33
57572;BME280;44459;43.522;24.470;2022-07-22T04:51:18;100160.59;;;23.16;59.59
57572;BME280;44459;43.522;24.470;2022-07-22T04:53:43;100158.16;;;23.30;59.56
57572;BME280;44459;43.522;24.470;2022-07-22T04:56:09;100163.94;;;23.41;58.44
57572;BME280;44459;43.522;24.470;2022-07-22T04:58:34;100165.25;;;23.51;58.33
57572;BME280;44459;43.522;24.470;2022-07-22T05:00:59;100167.28;;;23.65;57.28
57572;BME280;44459;43.522;24.470;2022-07-22T05:03:24;100163.84;;;23.80;58.91
57572;BME280;44459;43.522;24.470;2022-07-22T05:05:51;100168.59;;;23.92;57.54
57572;BME280;44459;43.522;24.470;2022-07-22T05:08:16;100175.84;;;24.09;56.82
57572;BME280;44459;43.522;24.470;2022-07-22T05:10:41;100172.50;;;24.23;56.79
57572;BME280;44459;43.522;24.470;2022-07-22T05:13:07;100178.00;;;24.38;55.29
57572;BME280;44459;43.522;24.470;2022-07-22T05:15:32;100175.63;;;24.49;56.80
57572;BME280;44459;43.522;24.470;2022-07-22T05:17:57;100179.81;;;24.72;55.87
57572;BME280;44459;43.522;24.470;2022-07-22T05:20:23;100181.97;;;24.83;55.12
57572;BME280;44459;43.522;24.470;2022-07-22T05:22:48;100187.44;;;24.98;56.36
57572;BME280;44459;43.522;24.470;2022-07-22T05:25:13;100190.28;;;25.13;54.43
57572;BME280;44459;43.522;24.470;2022-07-22T05:27:46;100185.78;;;25.29;54.59
57572;BME280;44459;43.522;24.470;2022-07-22T05:30:13;100197.28;;;25.48;54.32
57572;BME280;44459;43.522;24.470;2022-07-22T05:32:39;100208.34;;;25.61;54.43
57572;BME280;44459;43.522;24.470;2022-07-22T05:35:04;100206.63;;;25.75;53.06
57572;BME280;44459;43.522;24.470;2022-07-22T05:37:30;100207.22;;;25.80;52.48
57572;BME280;44459;43.522;24.470;2022-07-22T05:39:55;100210.44;;;25.87;53.58
57572;BME280;44459;43.522;24.470;2022-07-22T05:42:20;100208.69;;;26.01;52.38
57572;BME280;44459;43.522;24.470;2022-07-22T05:44:46;100216.44;;;26.08;52.72
57572;BME280;44459;43.522;24.470;2022-07-22T05:47:11;100220.41;;;26.18;52.48
57572;BME280;44459;43.522;24.470;2022-07-22T05:49:37;100219.19;;;26.23;52.50
57572;BME280;44459;43.522;24.470;2022-07-22T05:52:02;100225.44;;;26.39;53.07
57572;BME280;44459;43.522;24.470;2022-07-22T05:54:28;100225.22;;;26.58;52.55
57572;BME280;44459;43.522;24.470;2022-07-22T05:56:53;100222.81;;;26.68;52.66
57572;BME280;44459;43.522;24.470;2022-07-22T05:59:19;100224.00;;;26.78;51.09
57572;BME280;44459;43.522;24.470;2022-07-22T06:01:44;100226.78;;;26.92;50.56
57572;BME280;44459;43.522;24.470;2022-07-22T06:04:09;100226.53;;;26.96;50.83
57572;BME280;44459;43.522;24.470;2022-07-22T06:06:34;100226.91;;;27.19;52.00
57572;BME280;44459;43.522;24.470;2022-07-22T06:09:00;100226.84;;;27.34;49.74
57572;BME280;44459;43.522;24.470;2022-07-22T06:11:25;100232.75;;;27.41;49.41
57572;BME280;44459;43.522;24.470;2022-07-22T06:13:50;100228.41;;;27.52;49.03
57572;BME280;44459;43.522;24.470;2022-07-22T06:16:16;100230.63;;;27.60;49.73
57572;BME280;44459;43.522;24.470;2022-07-22T06:18:41;100232.25;;;27.77;49.26
57572;BME280;44459;43.522;24.470;2022-07-22T06:21:06;100229.22;;;27.95;51.26
57572;BME280;44459;43.522;24.470;2022-07-22T06:23:33;100228.72;;;28.17;48.18
57572;BME280;44459;43.522;24.470;2022-07-22T06:25:58;100234.84;;;28.07;47.30
57572;BME280;44459;43.522;24.470;2022-07-22T06:28:23;100232.25;;;28.32;47.59
57572;BME280;44459;43.522;24.470;2022-07-22T06:30:48;100232.19;;;28.46;47.24
57572;BME280;44459;43.522;24.470;2022-07-22T06:33:14;100237.34;;;28.63;49.33
57572;BME280;44459;43.522;24.470;2022-07-22T06:35:39;100235.34;;;28.79;48.08
57572;BME280;44459;43.522;24.470;2022-07-22T06:38:08;100239.81;;;28.93;46.63
57572;BME280;44459;43.522;24.470;2022-07-22T06:40:34;100237.03;;;28.94;47.30
57572;BME280;44459;43.522;24.470;2022-07-22T06:42:59;100241.81;;;29.16;47.36
57572;BME280;44459;43.522;24.470;2022-07-22T06:45:25;100241.25;;;28.98;45.46
57572;BME280;44459;43.522;24.470;2022-07-22T06:47:50;100235.28;;;29.19;46.56
57572;BME280;44459;43.522;24.470;2022-07-22T06:50:16;100237.47;;;29.26;46.16
57572;BME280;44459;43.522;24.470;2022-07-22T06:52:42;100242.81;;;29.28;45.85
57572;BME280;44459;43.522;24.470;2022-07-22T06:55:08;100255.69;;;28.99;45.75
57572;BME280;44459;43.522;24.470;2022-07-22T06:57:34;100244.59;;;28.77;45.37
57572;BME280;44459;43.522;24.470;2022-07-22T06:59:59;100244.38;;;28.92;46.53
57572;BME280;44459;43.522;24.470;2022-07-22T07:02:25;100252.03;;;29.25;45.96
57572;BME280;44459;43.522;24.470;2022-07-22T07:04:50;100257.72;;;29.47;46.14
57572;BME280;44459;43.522;24.470;2022-07-22T07:07:15;100252.38;;;29.84;46.40
57572;BME280;44459;43.522;24.470;2022-07-22T07:09:40;100255.53;;;29.90;43.72
57572;BME280;44459;43.522;24.470;2022-07-22T07:12:06;100266.00;;;29.84;43.69
57572;BME280;44459;43.522;24.470;2022-07-22T07:14:31;100264.28;;;30.07;42.80
57572;BME280;44459;43.522;24.470;2022-07-22T07:16:57;100251.81;;;30.28;44.80
57572;BME280;44459;43.522;24.470;2022-07-22T07:19:22;100263.59;;;30.52;42.67
57572;BME280;44459;43.522;24.470;2022-07-22T07:21:47;100265.47;;;30.75;44.07
57572;BME280;44459;43.522;24.470;2022-07-22T07:24:13;100270.03;;;30.99;43.44
57572;BME280;44459;43.522;24.470;2022-07-22T07:26:38;100270.56;;;31.15;42.96
57572;BME280;44459;43.522;24.470;2022-07-22T07:29:04;100267.28;;;31.44;41.54
57572;BME280;44459;43.522;24.470;2022-07-22T07:31:29;100255.88;;;31.51;40.00
57572;BME280;44459;43.522;24.470;2022-07-22T07:33:55;100257.03;;;31.70;42.02
57572;BME280;44459;43.522;24.470;2022-07-22T07:36:21;100257.03;;;31.81;40.95
57572;BME280;44459;43.522;24.470;2022-07-22T07:38:46;100257.38;;;31.99;40.11
57572;BME280;44459;43.522;24.470;2022-07-22T07:41:11;100267.03;;;32.25;39.81
57572;BME280;44459;43.522;24.470;2022-07-22T07:43:37;100264.59;;;31.78;40.51
57572;BME280;44459;43.522;24.470;2022-07-22T07:46:02;100267.31;;;31.89;39.53
57572;BME280;44459;43.522;24.470;2022-07-22T07:48:28;100267.69;;;31.96;38.47
57572;BME280;44459;43.522;24.470;2022-07-22T07:50:53;100262.00;;;32.10;38.61
57572;BME280;44459;43.522;24.470;2022-07-22T07:53:18;100271.06;;;32.10;39.43
57572;BME280;44459;43.522;24.470;2022-07-22T07:55:44;100267.91;;;32.26;38.06
57572;BME280;44459;43.522;24.470;2022-07-22T07:58:09;100274.38;;;32.25;37.32
57572;BME280;44459;43.522;24.470;2022-07-22T08:00:35;100274.88;;;32.19;36.60
57572;BME280;44459;43.522;24.470;2022-07-22T08:03:01;100276.78;;;32.07;35.86
57572;BME280;44459;43.522;24.470;2022-07-22T08:05:27;100274.75;;;31.98;35.77
57572;BME280;44459;43.522;24.470;2022-07-22T08:07:52;100273.63;;;31.56;36.72
57572;BME280;44459;43.522;24.470;2022-07-22T08:10:18;100274.56;;;31.22;37.73
57572;BME280;44459;43.522;24.470;2022-07-22T08:12:44;100279.03;;;31.45;37.86
57572;BME280;44459;43.522;24.470;2022-07-22T08:15:09;100273.88;;;31.53;36.33
57572;BME280;44459;43.522;24.470;2022-07-22T08:17:35;100268.38;;;31.42;38.12
57572;BME280;44459;43.522;24.470;2022-07-22T08:20:01;100268.19;;;31.89;38.42
57572;BME280;44459;43.522;24.470;2022-07-22T08:22:26;100267.91;;;32.26;37.27
57572;BME280;44459;43.522;24.470;2022-07-22T08:24:51;100260.41;;;32.39;36.39
57572;BME280;44459;43.522;24.470;2022-07-22T08:27:19;100258.19;;;32.44;37.03
57572;BME280;44459;43.522;24.470;2022-07-22T08:29:44;100260.88;;;32.66;35.01
57572;BME280;44459;43.522;24.470;2022-07-22T08:32:10;100258.06;;;32.77;35.30
57572;BME280;44459;43.522;24.470;2022-07-22T08:34:35;100251.94;;;32.85;37.12
57572;BME280;44459;43.522;24.470;2022-07-22T08:37:01;100254.94;;;33.14;39.49
57572;BME280;44459;43.522;24.470;2022-07-22T08:39:26;100262.78;;;33.49;35.85
57572;BME280;44459;43.522;24.470;2022-07-22T08:41:52;100263.78;;;33.68;34.27
57572;BME280;44459;43.522;24.470;2022-07-22T08:44:17;100268.31;;;33.79;33.28
57572;BME280;44459;43.522;24.470;2022-07-22T08:46:43;100264.41;;;33.81;35.71
57572;BME280;44459;43.522;24.470;2022-07-22T08:49:09;100269.28;;;33.78;35.12
57572;BME280;44459;43.522;24.470;2022-07-22T08:51:35;100265.06;;;33.64;33.78
57572;BME280;44459;43.522;24.470;2022-07-22T08:54:00;100270.81;;;33.20;33.36
57572;BME280;44459;43.522;24.470;2022-07-22T08:56:26;100265.38;;;33.09;34.60
57572;BME280;44459;43.522;24.470;2022-07-22T08:58:51;100265.00;;;33.34;35.50
57572;BME280;44459;43.522;24.470;2022-07-22T09:01:17;100267.59;;;33.56;33.24
57572;BME280;44459;43.522;24.470;2022-07-22T09:06:11;100269.41;;;34.07;33.29
57572;BME280;44459;43.522;24.470;2022-07-22T09:08:50;100271.56;;;33.43;32.67
57572;BME280;44459;43.522;24.470;2022-07-22T09:11:18;100271.72;;;33.09;32.32
57572;BME280;44459;43.522;24.470;2022-07-22T09:13:45;100266.31;;;33.39;32.17
57572;BME280;44459;43.522;24.470;2022-07-22T09:16:10;100272.91;;;33.78;33.81
57572;BME280;44459;43.522;24.470;2022-07-22T09:18:49;100264.22;;;34.04;33.63
57572;BME280;44459;43.522;24.470;2022-07-22T09:21:14;100271.00;;;33.69;31.50
57572;BME280;44459;43.522;24.470;2022-07-22T09:23:40;100275.91;;;33.75;31.88
57572;BME280;44459;43.522;24.470;2022-07-22T09:26:06;100279.56;;;33.85;32.89
57572;BME280;44459;43.522;24.470;2022-07-22T09:28:31;100279.09;;;34.11;32.00
57572;BME280;44459;43.522;24.470;2022-07-22T09:30:57;100261.00;;;33.99;31.92
57572;BME280;44459;43.522;24.470;2022-07-22T09:33:22;100267.03;;;34.23;31.79
57572;BME280;44459;43.522;24.470;2022-07-22T09:35:48;100260.72;;;34.32;30.86
57572;BME280;44459;43.522;24.470;2022-07-22T09:38:14;100257.84;;;34.43;31.12
57572;BME280;44459;43.522;24.470;2022-07-22T09:40:41;100264.47;;;34.31;29.64
57572;BME280;44459;43.522;24.470;2022-07-22T09:43:08;100262.00;;;34.18;29.90
57572;BME280;44459;43.522;24.470;2022-07-22T09:45:44;100264.44;;;34.21;30.07
57572;BME280;44459;43.522;24.470;2022-07-22T09:48:09;100262.75;;;34.49;31.09
57572;BME280;44459;43.522;24.470;2022-07-22T09:50:36;100267.69;;;34.65;30.74
57572;BME280;44459;43.522;24.470;2022-07-22T09:53:01;100265.84;;;34.65;30.08
57572;BME280;44459;43.522;24.470;2022-07-22T09:55:27;100270.72;;;34.71;32.24
57572;BME280;44459;43.522;24.470;2022-07-22T09:57:53;100261.22;;;34.95;31.76
57572;BME280;44459;43.522;24.470;2022-07-22T10:00:20;100262.22;;;34.65;29.92
57572;BME280;44459;43.522;24.470;2022-07-22T10:02:51;100253.44;;;34.80;30.64
57572;BME280;44459;43.522;24.470;2022-07-22T10:05:17;100256.44;;;34.97;30.23
57572;BME280;44459;43.522;24.470;2022-07-22T10:07:43;100260.06;;;35.16;29.71
57572;BME280;44459;43.522;24.470;2022-07-22T10:10:10;100252.06;;;35.42;31.25
57572;BME280;44459;43.522;24.470;2022-07-22T10:12:35;100249.38;;;35.69;29.42
57572;BME280;44459;43.522;24.470;2022-07-22T10:15:01;100249.84;;;35.55;28.92
57572;BME280;44459;43.522;24.470;2022-07-22T10:17:26;100245.09;;;35.48;29.81
57572;BME280;44459;43.522;24.470;2022-07-22T10:19:52;100241.34;;;35.49;29.78
57572;BME280;44459;43.522;24.470;2022-07-22T10:25:01;100249.69;;;35.66;28.52
57572;BME280;44459;43.522;24.470;2022-07-22T10:30:12;100246.91;;;34.72;27.81
57572;BME280;44459;43.522;24.470;2022-07-22T10:32:37;100249.22;;;35.05;29.75
57572;BME280;44459;43.522;24.470;2022-07-22T10:40:19;100246.44;;;35.34;26.73
57572;BME280;44459;43.522;24.470;2022-07-22T10:45:32;100247.50;;;34.66;26.96
57572;BME280;44459;43.522;24.470;2022-07-22T10:47:59;100247.63;;;35.03;29.50
57572;BME280;44459;43.522;24.470;2022-07-22T10:53:15;100252.13;;;35.23;26.94
57572;BME280;44459;43.522;24.470;2022-07-22T11:00:57;100245.91;;;35.11;26.77
57572;BME280;44459;43.522;24.470;2022-07-22T11:03:23;100240.66;;;35.37;26.16
57572;BME280;44459;43.522;24.470;2022-07-22T11:05:49;100242.00;;;35.14;26.75
57572;BME280;44459;43.522;24.470;2022-07-22T11:08:14;100227.41;;;35.23;26.95
57572;BME280;44459;43.522;24.470;2022-07-22T11:10:46;100237.41;;;35.51;26.34
57572;BME280;44459;43.522;24.470;2022-07-22T11:13:11;100238.41;;;35.69;26.55
57572;BME280;44459;43.522;24.470;2022-07-22T11:15:36;100243.66;;;35.53;26.81
57572;BME280;44459;43.522;24.470;2022-07-22T11:18:02;100234.38;;;35.64;25.61
57572;BME280;44459;43.522;24.470;2022-07-22T11:20:27;100240.56;;;36.03;27.52
57572;BME280;44459;43.522;24.470;2022-07-22T11:22:54;100230.91;;;35.99;26.61
57572;BME280;44459;43.522;24.470;2022-07-22T11:25:19;100223.03;;;36.31;25.16
57572;BME280;44459;43.522;24.470;2022-07-22T11:27:50;100235.66;;;36.24;25.68
57572;BME280;44459;43.522;24.470;2022-07-22T11:30:17;100227.78;;;35.47;26.04
57572;BME280;44459;43.522;24.470;2022-07-22T11:32:42;100225.22;;;35.17;26.70
57572;BME280;44459;43.522;24.470;2022-07-22T11:35:11;100223.94;;;34.92;26.55
57572;BME280;44459;43.522;24.470;2022-07-22T11:37:36;100214.19;;;35.46;26.06
57572;BME280;44459;43.522;24.470;2022-07-22T11:40:03;100224.34;;;35.72;25.46
57572;BME280;44459;43.522;24.470;2022-07-22T11:42:29;100216.72;;;35.94;25.26
57572;BME280;44459;43.522;24.470;2022-07-22T11:44:55;100226.22;;;35.81;26.05
57572;BME280;44459;43.522;24.470;2022-07-22T11:47:20;100225.97;;;35.75;24.60
57572;BME280;44459;43.522;24.470;2022-07-22T11:49:46;100221.81;;;35.52;24.54
57572;BME280;44459;43.522;24.470;2022-07-22T11:52:13;100215.28;;;35.62;25.33
57572;BME280;44459;43.522;24.470;2022-07-22T11:54:41;100216.13;;;35.72;24.65
57572;BME280;44459;43.522;24.470;2022-07-22T11:57:07;100214.41;;;35.71;24.67
57572;BME280;44459;43.522;24.470;2022-07-22T11:59:33;100206.41;;;35.78;23.58
57572;BME280;44459;43.522;24.470;2022-07-22T12:01:59;100219.44;;;35.76;23.48
57572;BME280;44459;43.522;24.470;2022-07-22T12:04:25;100211.41;;;35.65;23.52
57572;BME280;44459;43.522;24.470;2022-07-22T12:06:52;100207.13;;;35.43;22.19
57572;BME280;44459;43.522;24.470;2022-07-22T12:11:46;100205.97;;;36.10;22.40
57572;BME280;44459;43.522;24.470;2022-07-22T12:14:13;100208.41;;;36.13;22.39
57572;BME280;44459;43.522;24.470;2022-07-22T12:16:39;100204.47;;;35.88;21.47
57572;BME280;44459;43.522;24.470;2022-07-22T12:19:06;100197.69;;;35.82;21.98
57572;BME280;44459;43.522;24.470;2022-07-22T12:21:32;100199.94;;;35.69;21.74
57572;BME280;44459;43.522;24.470;2022-07-22T12:24:05;100188.78;;;35.98;22.57
57572;BME280;44459;43.522;24.470;2022-07-22T12:31:41;100184.69;;;36.12;22.71
57572;BME280;44459;43.522;24.470;2022-07-22T12:34:08;100191.44;;;36.35;23.51
57572;BME280;44459;43.522;24.470;2022-07-22T12:36:33;100190.59;;;36.52;21.97
57572;BME280;44459;43.522;24.470;2022-07-22T12:39:10;100187.84;;;36.34;21.78
57572;BME280;44459;43.522;24.470;2022-07-22T12:41:43;100178.88;;;36.15;21.75
57572;BME280;44459;43.522;24.470;2022-07-22T12:44:14;100180.91;;;36.48;24.69
57572;BME280;44459;43.522;24.470;2022-07-22T12:46:50;100180.63;;;36.51;22.75
57572;BME280;44459;43.522;24.470;2022-07-22T12:49:17;100179.28;;;36.55;23.68
57572;BME280;44459;43.522;24.470;2022-07-22T12:52:03;100172.84;;;36.82;22.02
57572;BME280;44459;43.522;24.470;2022-07-22T12:54:28;100173.53;;;37.02;21.44
57572;BME280;44459;43.522;24.470;2022-07-22T12:56:53;100183.28;;;37.22;26.18
57572;BME280;44459;43.522;24.470;2022-07-22T12:59:18;100173.69;;;37.26;21.15
57572;BME280;44459;43.522;24.470;2022-07-22T13:01:44;100174.69;;;37.17;20.84
57572;BME280;44459;43.522;24.470;2022-07-22T13:04:09;100177.91;;;36.95;20.55